Search METAR Data

METAR Data for ENBN:

ENBN 301220Z 35008KT 9999 FEW030 16/11 Q1012